Time;durP1;ratioP1;P1;durP2;ratioP2;P2;SDS_P1;SDS_P2;PMS_P1;PMS_P2;Temp;Humidity;BMP_temperature;BMP_pressure;BME280_temperature;BME280_humidity;BME280_pressure;Samples;Min_cycle;Max_cycle;Signal;HPM_P1;HPM_P2
2021/11/03 00:00:46;;;;;;;20.70;12.58;;;;;;;11.24;68.75;99795.04;1731691;80;21130;-60
2021/11/03 00:03:12;;;;;;;27.55;13.35;;;;;;;11.20;68.83;99797.13;1731203;80;22096;-59
2021/11/03 00:05:46;;;;;;;26.30;13.75;;;;;;;11.21;69.07;99809.30;1732976;81;21244;-60
2021/11/03 00:08:15;;;;;;;20.50;13.53;;;;;;;11.15;68.89;99795.41;1722109;81;21063;-60
2021/11/03 00:10:43;;;;;;;19.70;12.47;;;;;;;11.10;69.08;99794.51;1733485;80;21064;-60
2021/11/03 00:13:11;;;;;;;28.32;12.95;;;;;;;11.07;69.22;99790.83;1717513;81;21055;-58
2021/11/03 00:15:37;;;;;;;20.27;12.70;;;;;;;11.05;69.23;99789.33;1736762;81;21086;-60
2021/11/03 00:18:04;;;;;;;19.82;13.28;;;;;;;11.04;69.20;99787.66;1732493;80;21515;-61
2021/11/03 00:20:30;;;;;;;22.10;12.00;;;;;;;11.11;69.13;99791.38;1730816;80;21039;-58
2021/11/03 00:22:57;;;;;;;17.82;11.78;;;;;;;11.16;69.08;99786.52;1731448;80;21078;-59
2021/11/03 00:25:24;;;;;;;24.32;13.15;;;;;;;11.19;69.10;99785.42;1716230;80;21094;-59
2021/11/03 00:27:51;;;;;;;20.43;12.95;;;;;;;11.21;69.17;99789.55;1729995;80;21099;-59
2021/11/03 00:30:17;;;;;;;22.20;13.75;;;;;;;11.23;69.20;99788.95;1730887;80;21905;-60
2021/11/03 00:32:44;;;;;;;23.70;14.43;;;;;;;11.23;69.07;99787.64;1734543;80;20976;-60
2021/11/03 00:35:12;;;;;;;24.07;14.47;;;;;;;11.19;69.08;99786.23;1745684;80;21474;-59
2021/11/03 00:37:39;;;;;;;22.05;13.95;;;;;;;11.18;69.24;99791.18;1733602;80;21381;-59
2021/11/03 00:40:06;;;;;;;24.23;14.10;;;;;;;11.16;69.17;99793.10;1730973;80;21126;-59
2021/11/03 00:42:33;;;;;;;22.30;13.03;;;;;;;11.17;69.04;99790.00;1734927;80;21182;-59
2021/11/03 00:45:00;;;;;;;21.37;13.70;;;;;;;11.22;69.02;99792.55;1735092;80;21505;-60
2021/11/03 00:47:26;;;;;;;23.10;13.55;;;;;;;11.26;68.86;99792.63;1733519;81;21066;-59
2021/11/03 00:49:53;;;;;;;22.27;14.05;;;;;;;11.28;68.90;99785.88;1735932;80;22275;-60
2021/11/03 00:52:19;;;;;;;23.92;14.53;;;;;;;11.26;68.90;99788.67;1735886;80;21047;-59
2021/11/03 00:54:48;;;;;;;23.47;13.88;;;;;;;11.24;69.17;99784.02;1732980;80;22445;-59
2021/11/03 00:57:15;;;;;;;18.92;13.50;;;;;;;11.23;69.08;99792.91;1719356;80;21051;-59
2021/11/03 00:59:41;;;;;;;22.65;12.75;;;;;;;11.19;69.08;99790.19;1733891;80;21015;-59
2021/11/03 01:02:08;;;;;;;22.13;13.10;;;;;;;11.16;69.21;99789.15;1733867;80;21059;-60
2021/11/03 01:04:35;;;;;;;19.57;13.00;;;;;;;11.18;69.19;99789.86;1717653;81;21023;-60
2021/11/03 01:07:03;;;;;;;20.17;12.40;;;;;;;11.22;69.03;99787.77;1718661;80;21064;-60
2021/11/03 01:09:30;;;;;;;22.10;12.88;;;;;;;11.27;69.04;99785.55;1736051;80;22406;-60
2021/11/03 01:11:56;;;;;;;20.97;13.28;;;;;;;11.29;69.17;99779.14;1738028;80;21090;-60
2021/11/03 01:14:23;;;;;;;26.17;14.75;;;;;;;11.35;69.27;99783.03;1732114;80;21027;-60
2021/11/03 01:16:50;;;;;;;25.85;14.73;;;;;;;11.37;69.15;99784.21;1733699;80;21334;-60
2021/11/03 01:19:17;;;;;;;25.62;14.50;;;;;;;11.33;69.15;99784.95;1731022;80;21146;-60
2021/11/03 01:21:44;;;;;;;24.72;15.08;;;;;;;11.31;69.16;99782.95;1733907;80;21549;-60
2021/11/03 01:24:11;;;;;;;21.90;14.10;;;;;;;11.26;69.05;99785.19;1717778;81;21079;-61
2021/11/03 01:26:38;;;;;;;21.60;13.78;;;;;;;11.20;69.29;99781.33;1722804;81;21607;-60
2021/11/03 01:29:06;;;;;;;21.10;12.50;;;;;;;11.22;69.26;99785.14;1732851;80;21053;-60
2021/11/03 01:31:34;;;;;;;22.37;12.95;;;;;;;11.26;69.12;99776.83;1715266;81;21210;-60
2021/11/03 01:34:02;;;;;;;19.67;13.35;;;;;;;11.31;69.24;99775.05;1733771;80;21656;-60
2021/11/03 01:36:29;;;;;;;27.52;14.25;;;;;;;11.34;69.28;99776.91;1729585;80;21037;-60
2021/11/03 01:38:56;;;;;;;18.20;12.13;;;;;;;11.33;69.31;99776.59;1731410;80;21564;-60
2021/11/03 01:41:23;;;;;;;26.77;14.87;;;;;;;11.31;69.29;99778.55;1718171;81;21121;-60
2021/11/03 01:44:05;;;;;;;21.20;13.60;;;;;;;11.28;69.37;99780.14;1721943;81;21343;-60
2021/11/03 01:46:38;;;;;;;21.73;13.93;;;;;;;11.26;69.40;99778.61;1741149;80;21054;-60
2021/11/03 01:49:22;;;;;;;23.95;12.68;;;;;;;11.22;69.46;99778.06;1741028;80;21091;-61
2021/11/03 01:52:07;;;;;;;21.05;12.07;;;;;;;11.23;69.33;99781.52;1739345;80;21055;-60
2021/11/03 01:54:40;;;;;;;16.57;12.13;;;;;;;11.27;69.30;99782.91;1743505;80;21567;-61
2021/11/03 01:57:13;;;;;;;18.92;12.63;;;;;;;11.29;69.39;99786.23;1745838;80;21976;-60
2021/11/03 01:59:43;;;;;;;22.32;13.10;;;;;;;11.29;69.40;99778.33;1744030;80;21015;-60
2021/11/03 02:02:10;;;;;;;21.85;13.18;;;;;;;11.29;69.67;99783.59;1748270;80;20988;-61
2021/11/03 02:04:36;;;;;;;21.77;14.40;;;;;;;11.30;69.71;99784.77;1740267;80;21098;-61
2021/11/03 02:07:08;;;;;;;22.50;12.58;;;;;;;11.28;69.62;99782.77;1737629;80;21098;-60
2021/11/03 02:09:35;;;;;;;21.82;14.00;;;;;;;11.25;69.49;99788.31;1740516;80;21152;-60
2021/11/03 02:12:03;;;;;;;21.17;12.20;;;;;;;11.19;69.60;99773.57;1741836;81;21039;-61
2021/11/03 02:14:32;;;;;;;23.45;13.53;;;;;;;11.18;69.54;99778.02;1743103;80;21043;-61
2021/11/03 02:16:58;;;;;;;18.57;11.90;;;;;;;11.19;69.43;99782.29;1743004;80;21047;-61
2021/11/03 02:19:30;;;;;;;20.17;11.75;;;;;;;11.20;69.65;99772.11;1740156;80;21038;-61
2021/11/03 02:22:09;;;;;;;24.72;12.78;;;;;;;11.24;69.79;99773.48;1721258;80;21112;-61
2021/11/03 02:24:47;;;;;;;19.20;11.25;;;;;;;11.26;69.73;99776.83;1719781;81;21122;-59
2021/11/03 02:27:14;;;;;;;18.00;11.40;;;;;;;11.24;69.91;99772.66;1720508;82;21054;-60
2021/11/03 02:29:40;;;;;;;21.35;12.05;;;;;;;11.22;69.94;99776.74;1719227;82;20996;-60
2021/11/03 02:32:20;;;;;;;21.42;12.58;;;;;;;11.19;69.97;99773.08;1743495;81;21098;-60
2021/11/03 02:34:47;;;;;;;21.40;12.33;;;;;;;11.17;70.08;99772.39;1720750;80;23032;-59
2021/11/03 02:37:32;;;;;;;23.65;12.90;;;;;;;11.15;70.06;99771.21;1742561;81;21079;-59
2021/11/03 02:40:26;;;;;;;;;;;;;;;11.19;69.92;99765.17;1744829;80;21014;-59
2021/11/03 02:43:15;;;;;;;18.23;10.90;;;;;;;11.27;69.79;99776.33;1721320;81;21307;-59
2021/11/03 02:45:47;;;;;;;16.95;11.03;;;;;;;11.29;69.69;99775.69;1745103;80;21045;-59
2021/11/03 02:48:14;;;;;;;17.52;12.43;;;;;;;11.32;69.83;99783.31;1736397;80;21136;-60
2021/11/03 02:50:58;;;;;;;24.30;12.25;;;;;;;11.36;70.01;99791.76;1729807;81;21050;-60
2021/11/03 02:53:25;;;;;;;20.52;13.38;;;;;;;11.41;70.01;99790.34;1748584;80;21067;-60
2021/11/03 02:55:52;;;;;;;20.82;13.90;;;;;;;11.40;69.77;99797.07;1745298;80;21576;-59
2021/11/03 02:58:18;;;;;;;20.95;12.78;;;;;;;11.39;69.67;99804.65;1722491;80;21123;-60
2021/11/03 03:00:46;;;;;;;23.00;11.88;;;;;;;11.39;69.81;99800.70;1745089;80;22323;-61
2021/11/03 03:03:13;;;;;;;18.23;11.60;;;;;;;11.37;69.63;99798.70;1729967;81;21760;-61
2021/11/03 03:05:40;;;;;;;17.77;11.95;;;;;;;11.39;69.41;99810.73;1747681;80;20996;-62
2021/11/03 03:08:07;;;;;;;17.02;11.60;;;;;;;11.42;69.28;99809.64;1729012;80;21470;-61
2021/11/03 03:10:33;;;;;;;20.70;11.90;;;;;;;11.44;69.35;99803.73;1748979;80;21019;-61
2021/11/03 03:13:01;;;;;;;20.15;12.98;;;;;;;11.48;69.37;99806.41;1751511;80;21047;-61
2021/11/03 03:15:28;;;;;;;20.10;12.37;;;;;;;11.47;69.56;99798.19;1747327;80;21800;-61
2021/11/03 03:17:55;;;;;;;20.12;12.18;;;;;;;11.47;69.54;99808.72;1750672;80;21110;-61
2021/11/03 03:20:22;;;;;;;18.87;11.63;;;;;;;11.43;69.70;99801.59;1743593;80;21070;-60
2021/11/03 03:22:48;;;;;;;22.55;13.08;;;;;;;11.43;69.51;99809.97;1742055;80;20992;-60
2021/11/03 03:25:16;;;;;;;20.97;13.35;;;;;;;11.37;69.63;99804.79;1743521;80;21115;-60
2021/11/03 03:27:43;;;;;;;20.37;11.80;;;;;;;11.37;69.59;99806.60;1745582;80;21026;-61
2021/11/03 03:30:11;;;;;;;17.37;12.33;;;;;;;11.39;69.51;99802.02;1743190;80;22405;-61
2021/11/03 03:32:39;;;;;;;18.48;11.20;;;;;;;11.44;69.79;99793.20;1745690;80;21570;-60
2021/11/03 03:35:06;;;;;;;18.73;11.73;;;;;;;11.50;69.79;99790.00;1744899;80;21070;-64
2021/11/03 03:37:34;;;;;;;19.00;11.45;;;;;;;11.55;69.78;99780.33;1742651;80;21075;-61
2021/11/03 03:40:01;;;;;;;19.42;11.57;;;;;;;11.55;69.78;99781.17;1750827;80;21499;-60
2021/11/03 03:42:28;;;;;;;17.50;10.60;;;;;;;11.54;69.86;99782.14;1729138;80;21066;-61
2021/11/03 03:44:55;;;;;;;20.43;12.23;;;;;;;11.50;69.91;99777.65;1745630;80;21011;-61
2021/11/03 03:47:22;;;;;;;16.73;11.50;;;;;;;11.47;69.95;99783.20;1750483;80;20987;-59
2021/11/03 03:49:49;;;;;;;19.77;10.95;;;;;;;11.42;70.12;99783.30;1749921;80;22220;-59
2021/11/03 03:52:16;;;;;;;17.55;9.83;;;;;;;11.44;70.21;99794.52;1742401;80;21149;-60
2021/11/03 03:54:44;;;;;;;14.87;9.70;;;;;;;11.50;70.07;99790.82;1745744;80;21332;-60
2021/11/03 03:57:11;;;;;;;19.52;10.08;;;;;;;11.55;69.92;99794.81;1748199;80;21685;-59
2021/11/03 03:59:37;;;;;;;19.65;11.83;;;;;;;11.57;69.92;99794.20;1751219;80;21062;-59
2021/11/03 04:02:05;;;;;;;18.77;10.82;;;;;;;11.59;70.00;99799.66;1743262;80;21119;-61
2021/11/03 04:04:32;;;;;;;17.98;10.65;;;;;;;11.57;70.12;99802.94;1744871;80;21038;-59
2021/11/03 04:06:59;;;;;;;16.80;9.85;;;;;;;11.57;70.19;99807.38;1749083;80;21489;-59
2021/11/03 04:09:26;;;;;;;17.27;10.78;;;;;;;11.57;70.10;99806.89;1728080;81;21059;-62
2021/11/03 04:11:52;;;;;;;17.35;9.78;;;;;;;11.55;70.01;99805.36;1734602;81;21000;-60
2021/11/03 04:14:21;;;;;;;15.53;10.53;;;;;;;11.50;70.02;99797.41;1744694;80;21111;-62
2021/11/03 04:16:47;;;;;;;19.10;11.20;;;;;;;11.53;69.97;99798.91;1727345;81;21070;-60
2021/11/03 04:19:14;;;;;;;16.23;10.32;;;;;;;11.57;69.76;99796.34;1731133;81;21066;-61
2021/11/03 04:21:41;;;;;;;19.07;11.03;;;;;;;11.60;69.84;99800.02;1745848;80;21063;-61
2021/11/03 04:24:08;;;;;;;19.77;10.98;;;;;;;11.65;69.90;99794.30;1740730;80;21811;-61
2021/11/03 04:26:37;;;;;;;18.02;11.80;;;;;;;11.69;69.86;99795.69;1746901;80;22434;-61
2021/11/03 04:29:05;;;;;;;18.30;10.88;;;;;;;11.68;69.75;99798.81;1745892;80;22530;-61
2021/11/03 04:31:32;;;;;;;17.40;11.63;;;;;;;11.64;69.67;99802.70;1722283;81;21097;-60
2021/11/03 04:34:00;;;;;;;18.02;11.93;;;;;;;11.59;69.73;99802.30;1745739;80;21055;-62
2021/11/03 04:36:27;;;;;;;20.45;12.65;;;;;;;11.53;69.99;99802.86;1749463;80;21106;-60
2021/11/03 04:38:56;;;;;;;16.05;10.58;;;;;;;11.48;70.12;99806.41;1733960;81;21050;-63
2021/11/03 04:41:23;;;;;;;18.85;10.23;;;;;;;11.49;70.16;99802.81;1748053;80;21075;-59
2021/11/03 04:43:51;;;;;;;15.53;10.00;;;;;;;11.56;70.02;99807.03;1736189;80;21149;-60
2021/11/03 04:46:18;;;;;;;19.70;9.70;;;;;;;11.60;69.91;99814.52;1721618;80;21035;-63
2021/11/03 04:48:47;;;;;;;18.12;10.35;;;;;;;11.63;70.00;99816.87;1734576;80;21079;-63
2021/11/03 04:51:14;;;;;;;17.10;10.40;;;;;;;11.65;69.97;99822.81;1717097;80;21211;-62
2021/11/03 04:53:41;;;;;;;19.85;11.20;;;;;;;11.65;70.09;99818.86;1740779;80;21142;-59
2021/11/03 04:56:09;;;;;;;20.90;11.03;;;;;;;11.66;70.02;99823.64;1736861;80;21048;-62
2021/11/03 04:58:37;;;;;;;18.00;11.55;;;;;;;11.64;70.04;99829.05;1737172;80;21024;-60
2021/11/03 05:01:04;;;;;;;15.70;10.43;;;;;;;11.61;69.91;99824.06;1733769;80;21086;-60
2021/11/03 05:03:31;;;;;;;17.50;10.82;;;;;;;11.61;70.13;99828.51;1739049;80;22363;-59
2021/11/03 05:06:00;;;;;;;18.85;9.30;;;;;;;11.62;70.00;99831.00;1716576;80;21062;-60
2021/11/03 05:08:28;;;;;;;17.57;10.30;;;;;;;11.70;69.89;99827.63;1720399;81;21078;-62
2021/11/03 05:10:55;;;;;;;19.57;10.53;;;;;;;11.76;69.78;99828.38;1739919;80;21101;-61
2021/11/03 05:13:22;;;;;;;15.60;9.28;;;;;;;11.83;69.88;99832.09;1740510;80;21102;-62
2021/11/03 05:15:51;;;;;;;14.90;9.50;;;;;;;11.89;69.68;99843.39;1719353;82;21237;-64
2021/11/03 05:18:17;;;;;;;13.40;8.75;;;;;;;11.88;69.73;99842.22;1718613;81;21612;-63
2021/11/03 05:20:46;;;;;;;14.45;8.18;;;;;;;11.88;69.63;99841.75;1718834;82;21038;-62
2021/11/03 05:23:13;;;;;;;16.30;9.65;;;;;;;11.85;69.50;99847.77;1741534;81;21138;-61
2021/11/03 05:25:39;;;;;;;15.72;8.35;;;;;;;11.76;69.55;99842.88;1745349;80;21085;-60
2021/11/03 05:28:06;;;;;;;16.57;8.70;;;;;;;11.70;69.84;99832.91;1742469;79;21216;-62
2021/11/03 05:30:33;;;;;;;14.25;8.43;;;;;;;11.67;69.83;99837.17;1739515;80;21047;-62
2021/11/03 05:32:59;;;;;;;17.37;7.80;;;;;;;11.69;69.92;99845.27;1738471;80;21433;-63
2021/11/03 05:35:26;;;;;;;14.55;7.60;;;;;;;11.71;69.88;99842.48;1722364;81;21086;-62
2021/11/03 05:37:52;;;;;;;11.45;7.25;;;;;;;11.73;70.06;99839.70;1738287;80;21729;-62
2021/11/03 05:40:22;;;;;;;14.45;8.15;;;;;;;11.74;70.23;99840.06;1715486;81;21042;-62
2021/11/03 05:42:48;;;;;;;14.25;6.72;;;;;;;11.75;70.42;99844.34;1737777;80;21544;-61
2021/11/03 05:45:17;;;;;;;10.70;6.25;;;;;;;11.74;70.43;99844.02;1742416;80;21050;-62
2021/11/03 05:47:44;;;;;;;9.60;5.47;;;;;;;11.70;70.46;99846.08;1743506;80;22387;-61
2021/11/03 05:50:14;;;;;;;10.18;5.70;;;;;;;11.67;70.66;99848.53;1682260;83;21090;-61
2021/11/03 05:52:41;;;;;;;8.63;5.62;;;;;;;11.67;70.58;99856.44;1660782;82;21093;-62
2021/11/03 05:55:08;;;;;;;12.23;7.10;;;;;;;11.76;70.52;99862.65;1687658;83;21066;-65
2021/11/03 05:57:36;;;;;;;14.00;8.43;;;;;;;11.84;70.70;99865.41;1680784;82;21075;-62
2021/11/03 06:00:10;;;;;;;16.75;8.78;;;;;;;11.90;70.55;99872.75;1684251;83;21047;-62
2021/11/03 06:02:38;;;;;;;11.80;6.50;;;;;;;11.88;70.48;99876.48;1690740;82;21139;-64
2021/11/03 06:05:06;;;;;;;9.65;5.78;;;;;;;11.87;70.54;99874.84;1654562;84;22293;-62
2021/11/03 06:07:32;;;;;;;8.05;4.65;;;;;;;11.83;70.48;99878.73;1692547;83;21507;-62
2021/11/03 06:10:02;;;;;;;6.85;4.20;;;;;;;11.80;70.66;99888.23;1685814;83;21722;-63
2021/11/03 06:12:29;;;;;;;6.67;3.85;;;;;;;11.81;70.69;99898.63;1691860;83;21533;-60
2021/11/03 06:14:55;;;;;;;7.10;3.40;;;;;;;11.89;70.53;99901.39;1686230;83;21896;-61
2021/11/03 06:17:23;;;;;;;6.65;3.80;;;;;;;11.94;70.45;99907.59;1702116;83;21012;-61
2021/11/03 06:19:50;;;;;;;6.97;3.85;;;;;;;11.97;70.40;99903.83;1670316;83;21083;-61
2021/11/03 06:22:16;;;;;;;8.38;4.17;;;;;;;11.95;70.51;99903.97;1703752;82;21060;-61
2021/11/03 06:24:47;;;;;;;8.73;3.52;;;;;;;11.95;70.50;99909.23;1695811;82;22401;-60
2021/11/03 06:27:14;;;;;;;7.95;4.25;;;;;;;11.92;70.53;99908.23;1666152;83;22338;-61
2021/11/03 06:29:40;;;;;;;7.45;3.80;;;;;;;11.92;70.54;99908.23;1690948;83;21204;-62
2021/11/03 06:32:08;;;;;;;6.65;3.45;;;;;;;11.96;70.53;99914.05;1665467;82;21614;-61
2021/11/03 06:34:34;;;;;;;8.40;3.12;;;;;;;12.04;70.22;99916.80;1683803;83;21077;-61
2021/11/03 06:37:01;;;;;;;6.47;2.67;;;;;;;12.08;70.21;99912.89;1681022;83;21074;-61
2021/11/03 06:39:28;;;;;;;7.17;4.08;;;;;;;12.14;70.11;99923.34;1685664;83;21145;-61
2021/11/03 06:41:54;;;;;;;8.43;3.70;;;;;;;12.18;70.06;99927.36;1690025;83;21106;-61
2021/11/03 06:44:20;;;;;;;9.43;4.25;;;;;;;12.15;69.93;99921.05;1682038;83;21509;-61
2021/11/03 06:46:47;;;;;;;7.72;4.12;;;;;;;12.11;70.24;99922.33;1685584;83;21068;-61
2021/11/03 06:49:13;;;;;;;7.25;3.85;;;;;;;12.12;70.30;99923.97;1743224;80;21054;-61
2021/11/03 06:51:41;;;;;;;7.28;4.03;;;;;;;12.12;70.28;99927.47;1741933;80;21133;-61
2021/11/03 06:54:07;;;;;;;6.50;3.45;;;;;;;12.11;70.20;99934.20;1722067;81;21058;-61
2021/11/03 06:56:35;;;;;;;7.58;4.00;;;;;;;12.11;70.12;99932.38;1736389;80;21086;-61
2021/11/03 06:59:02;;;;;;;8.03;3.62;;;;;;;12.17;69.91;99935.77;1713601;80;21994;-60
2021/11/03 07:01:28;;;;;;;6.37;3.52;;;;;;;12.19;69.92;99935.13;1715199;82;21082;-61
2021/11/03 07:03:58;;;;;;;6.42;3.47;;;;;;;12.22;70.06;99941.45;1720441;80;21334;-61
2021/11/03 07:06:25;;;;;;;9.55;4.20;;;;;;;12.25;70.03;99941.63;1740163;80;21145;-60
2021/11/03 07:08:53;;;;;;;11.00;4.97;;;;;;;12.23;70.14;99943.59;1746724;80;21090;-59
2021/11/03 07:11:20;;;;;;;7.65;4.12;;;;;;;12.20;70.10;99953.10;1742108;80;21584;-59
2021/11/03 07:13:46;;;;;;;7.22;3.95;;;;;;;12.16;70.24;99955.70;1718825;83;21103;-60
2021/11/03 07:16:13;;;;;;;7.85;4.00;;;;;;;12.14;70.40;99957.16;1737846;80;21090;-60
2021/11/03 07:18:40;;;;;;;7.10;4.00;;;;;;;12.13;70.34;99952.02;1742027;80;21119;-60
2021/11/03 07:21:07;;;;;;;9.23;4.15;;;;;;;12.21;70.29;99958.23;1743851;80;21047;-60
2021/11/03 07:23:34;;;;;;;7.58;4.58;;;;;;;12.26;70.32;99957.31;1726736;80;21149;-60
2021/11/03 07:26:01;;;;;;;7.65;4.28;;;;;;;12.33;70.31;99960.20;1727658;81;21074;-60
2021/11/03 07:28:27;;;;;;;9.28;4.53;;;;;;;12.35;70.50;99955.61;1744292;81;21020;-60
2021/11/03 07:30:53;;;;;;;8.65;4.65;;;;;;;12.36;70.48;99954.64;1745497;80;23186;-60
2021/11/03 07:33:20;;;;;;;11.68;4.22;;;;;;;12.33;70.41;99958.89;1733625;80;21110;-61
2021/11/03 07:35:46;;;;;;;8.50;5.03;;;;;;;12.31;70.67;99955.56;1716597;80;21489;-61
2021/11/03 07:38:13;;;;;;;9.88;5.72;;;;;;;12.30;70.65;99954.39;1719581;82;21271;-61
2021/11/03 07:40:45;;;;;;;7.85;4.42;;;;;;;12.32;70.78;99959.84;1742414;80;21128;-61
2021/11/03 07:43:14;;;;;;;8.25;4.65;;;;;;;12.39;70.68;99962.28;1739727;80;21121;-62
2021/11/03 07:45:41;;;;;;;8.88;4.90;;;;;;;12.44;70.55;99957.89;1743448;80;21023;-61
2021/11/03 07:48:07;;;;;;;10.08;4.72;;;;;;;12.43;70.66;99957.04;1748933;80;21041;-61
2021/11/03 07:50:39;;;;;;;8.05;4.75;;;;;;;12.45;70.80;99960.36;1747503;80;21039;-61
2021/11/03 07:53:05;;;;;;;9.15;4.62;;;;;;;12.45;71.04;99961.67;1744426;80;21141;-61
2021/11/03 07:55:34;;;;;;;8.33;4.72;;;;;;;12.45;71.05;99964.31;1749778;80;21133;-60
2021/11/03 07:58:00;;;;;;;9.18;5.17;;;;;;;12.47;71.19;99969.45;1746620;81;21027;-61
2021/11/03 08:00:30;;;;;;;10.23;5.53;;;;;;;12.47;71.17;99966.81;1745206;80;21047;-61
2021/11/03 08:02:56;;;;;;;9.03;5.22;;;;;;;12.50;71.21;99970.98;1746420;81;21153;-62
2021/11/03 08:05:27;;;;;;;9.08;5.12;;;;;;;12.55;71.06;99966.09;1723268;81;21027;-61
2021/11/03 08:07:52;;;;;;;9.40;5.00;;;;;;;12.61;71.04;99966.34;1749843;80;21109;-60
2021/11/03 08:10:19;;;;;;;12.75;5.62;;;;;;;12.68;71.08;99972.37;1708785;80;21097;-61
2021/11/03 08:12:46;;;;;;;10.00;5.47;;;;;;;12.72;71.05;99968.45;1750467;80;21074;-60
2021/11/03 08:15:13;;;;;;;8.65;5.10;;;;;;;12.71;71.02;99975.54;1726437;81;21062;-60
2021/11/03 08:17:40;;;;;;;9.83;5.25;;;;;;;12.71;70.98;99976.01;1744097;81;21105;-60
2021/11/03 08:20:10;;;;;;;8.98;4.78;;;;;;;12.64;71.00;99977.94;1743472;80;21129;-61
2021/11/03 08:22:38;;;;;;;9.43;5.20;;;;;;;12.62;71.18;99983.00;1719442;81;21067;-61
2021/11/03 08:25:05;;;;;;;13.85;5.12;;;;;;;12.62;71.26;99977.26;1727173;80;21126;-61
2021/11/03 08:27:33;;;;;;;9.08;4.28;;;;;;;12.72;71.21;99970.59;1748034;81;20983;-60
2021/11/03 08:29:59;;;;;;;11.15;5.35;;;;;;;12.79;71.08;99977.43;1743772;80;22354;-59
2021/11/03 08:32:31;;;;;;;8.43;4.78;;;;;;;12.83;71.24;99982.28;1746586;80;21106;-60
2021/11/03 08:34:57;;;;;;;7.92;4.78;;;;;;;12.90;71.24;99981.20;1721235;80;21070;-60
2021/11/03 08:37:32;;;;;;;10.03;5.60;;;;;;;12.93;71.25;99988.01;1748565;81;22289;-60
2021/11/03 08:39:59;;;;;;;9.85;4.75;;;;;;;12.94;71.14;99989.65;1722732;81;21055;-60
2021/11/03 08:42:25;;;;;;;8.05;4.78;;;;;;;12.94;71.24;99992.29;1731585;81;21062;-60
2021/11/03 08:44:51;;;;;;;8.10;4.53;;;;;;;12.97;71.43;99993.33;1747914;80;21143;-60
2021/11/03 08:47:18;;;;;;;16.67;8.90;;;;;;;13.03;71.27;100004.62;1741045;81;21055;-60
2021/11/03 08:49:45;;;;;;;12.15;7.40;;;;;;;13.12;71.02;100002.41;1740662;80;21584;-59
2021/11/03 08:52:11;;;;;;;14.98;10.80;;;;;;;13.18;70.71;100004.95;1751551;80;21110;-60
2021/11/03 08:54:39;;;;;;;10.85;4.83;;;;;;;13.18;70.75;100007.09;1746520;81;21051;-60
2021/11/03 08:57:07;;;;;;;17.67;13.53;;;;;;;13.19;70.71;100011.88;1728675;81;21133;-60
2021/11/03 08:59:33;;;;;;;17.77;12.95;;;;;;;13.17;70.71;100014.67;1747704;80;21102;-60
2021/11/03 09:02:00;;;;;;;17.82;11.40;;;;;;;13.16;70.71;100010.86;1751828;80;21536;-60
2021/11/03 09:04:26;;;;;;;23.62;15.83;;;;;;;13.12;70.50;100018.25;1743140;80;21090;-60
2021/11/03 09:06:52;;;;;;;21.37;16.02;;;;;;;13.10;70.44;100016.25;1743580;80;21058;-60
2021/11/03 09:09:19;;;;;;;21.82;16.52;;;;;;;13.11;70.43;100020.56;1751476;81;21066;-60
2021/11/03 09:11:50;;;;;;;14.47;8.78;;;;;;;13.11;70.43;100032.45;1722528;81;21114;-60
2021/11/03 09:14:14;;;;;;;8.58;5.35;;;;;;;13.09;70.53;100029.11;1742690;80;21031;-60
2021/11/03 09:16:40;;;;;;;10.78;6.33;;;;;;;13.08;70.61;100035.39;1743133;80;21075;-60
2021/11/03 09:19:07;;;;;;;10.40;6.83;;;;;;;13.05;70.69;100032.22;1754494;80;21527;-60
2021/11/03 09:21:33;;;;;;;14.28;6.95;;;;;;;13.08;70.75;100039.35;1724465;81;21062;-61
2021/11/03 09:24:00;;;;;;;10.82;6.03;;;;;;;13.16;70.56;100039.91;1755137;80;21530;-59
2021/11/03 09:26:26;;;;;;;14.55;6.60;;;;;;;13.22;70.51;100044.62;1750875;80;21070;-60
2021/11/03 09:28:54;;;;;;;11.57;6.58;;;;;;;13.23;70.40;100042.80;1749312;80;21393;-60
2021/11/03 09:31:21;;;;;;;10.75;6.08;;;;;;;13.21;70.49;100050.87;1748357;80;21564;-60
2021/11/03 09:33:48;;;;;;;11.90;7.08;;;;;;;13.17;70.43;100054.30;1753684;80;21228;-61
2021/11/03 09:36:18;;;;;;;8.33;5.20;;;;;;;13.11;70.57;100064.16;1745927;80;21215;-60
2021/11/03 09:38:45;;;;;;;10.90;7.35;;;;;;;13.09;70.65;100058.16;1745130;80;21134;-61
2021/11/03 09:41:26;;;;;;;12.28;5.75;;;;;;;13.14;70.52;100055.09;1753093;80;21028;-61
2021/11/03 09:44:16;;;;;;;18.60;6.60;;;;;;;13.18;70.69;100054.66;1749407;80;21050;-60
2021/11/03 09:46:50;;;;;;;11.28;6.92;;;;;;;13.25;70.93;100046.97;1750692;80;21135;-60
2021/11/03 09:49:36;;;;;;;18.37;6.60;;;;;;;13.32;70.91;100048.56;1751870;81;21441;-59
2021/11/03 09:52:21;;;;;;;12.85;6.20;;;;;;;13.35;70.76;100054.88;1742893;80;21024;-61
2021/11/03 09:54:51;;;;;;;15.20;7.40;;;;;;;13.36;70.79;100059.16;1747046;81;21027;-60
2021/11/03 09:57:22;;;;;;;11.43;7.30;;;;;;;13.37;70.69;100066.12;1746629;80;21086;-60
2021/11/03 10:02:37;;;;;;;15.18;7.15;;;;;;;13.57;70.46;100061.53;1800634;77;23074;-60
2021/11/03 10:05:22;;;;;;;13.70;7.67;;;;;;;13.61;70.29;100062.88;1689142;83;21137;-60
2021/11/03 10:08:03;;;;;;;10.18;6.12;;;;;;;13.72;70.32;100067.95;1753459;79;20990;-61
2021/11/03 10:10:38;;;;;;;14.15;7.55;;;;;;;13.83;70.10;100077.46;1761781;79;21000;-60
2021/11/03 10:13:30;;;;;;;13.35;7.58;;;;;;;13.85;69.43;100072.88;1770731;79;21018;-60
2021/11/03 10:16:17;;;;;;;12.33;7.53;;;;;;;13.80;69.36;100077.80;1772823;78;21040;-62
2021/11/03 10:18:58;;;;;;;12.85;8.43;;;;;;;13.74;69.25;100078.38;1763448;80;21135;-64
2021/11/03 10:21:28;;;;;;;11.78;7.55;;;;;;;13.73;69.43;100081.53;1774044;78;22015;-62
2021/11/03 10:24:16;;;;;;;10.78;7.95;;;;;;;13.83;69.54;100080.11;1771455;78;21572;-63
2021/11/03 10:26:51;;;;;;;12.25;7.58;;;;;;;13.94;69.52;100087.83;1763423;78;21096;-63
2021/11/03 10:29:48;;;;;;;13.00;7.93;;;;;;;14.06;69.25;100092.89;1770152;78;21067;-61
2021/11/03 10:32:29;;;;;;;14.07;8.13;;;;;;;14.06;69.25;100092.89;1775750;79;21313;-62
2021/11/03 10:35:18;;;;;;;14.43;8.58;;;;;;;14.04;68.91;100094.86;1741563;80;21231;-64
2021/11/03 10:37:46;;;;;;;15.40;10.18;;;;;;;14.01;68.90;100092.02;1767842;79;21091;-61
2021/11/03 10:40:23;;;;;;;24.55;16.30;;;;;;;13.98;68.76;100096.28;1707005;81;21050;-61
2021/11/03 10:43:02;;;;;;;19.62;10.50;;;;;;;14.04;68.94;100097.51;1708248;83;21651;-61
2021/11/03 10:45:34;;;;;;;13.53;7.78;;;;;;;14.18;68.61;100097.45;1703871;81;21043;-62
2021/11/03 10:48:23;;;;;;;11.40;8.40;;;;;;;14.24;68.41;100101.63;1713074;81;21216;-62
2021/11/03 10:51:00;;;;;;;15.28;10.88;;;;;;;14.31;68.40;100104.00;1714717;82;20994;-62
2021/11/03 10:53:38;;;;;;;18.60;10.98;;;;;;;14.36;68.25;100108.02;1714493;83;21108;-62
2021/11/03 10:56:22;;;;;;;14.03;9.93;;;;;;;14.36;67.80;100110.66;1732575;80;21068;-63
2021/11/03 10:59:14;;;;;;;16.75;9.93;;;;;;;14.34;67.76;100109.96;1722543;81;21722;-62
2021/11/03 11:01:45;;;;;;;15.70;9.75;;;;;;;14.33;67.74;100109.64;1699733;81;22026;-63
2021/11/03 11:04:24;;;;;;;16.23;10.45;;;;;;;14.32;67.80;100110.11;1701127;82;21090;-63
2021/11/03 11:06:55;;;;;;;14.07;9.40;;;;;;;14.37;67.28;100118.92;1700649;82;21194;-63
2021/11/03 11:09:52;;;;;;;16.57;10.60;;;;;;;14.41;66.73;100118.47;1699001;83;21000;-66
2021/11/03 11:12:28;;;;;;;18.12;11.97;;;;;;;14.47;66.69;100115.69;1673949;83;21069;-63
2021/11/03 11:15:18;;;;;;;16.93;11.20;;;;;;;14.51;66.62;100115.73;1701237;83;21130;-63
2021/11/03 11:18:08;;;;;;;15.18;10.75;;;;;;;14.48;66.27;100123.47;1696578;82;21681;-62
2021/11/03 11:20:40;;;;;;;18.23;11.50;;;;;;;14.46;66.48;100127.28;1701362;82;21556;-62
2021/11/03 11:23:29;;;;;;;17.25;11.05;;;;;;;14.50;66.63;100132.09;1696409;82;21071;-63
2021/11/03 11:26:22;;;;;;;16.77;10.90;;;;;;;14.53;66.33;100133.61;1698237;82;21051;-62
2021/11/03 11:29:10;;;;;;;30.82;12.03;;;;;;;14.54;66.30;100132.63;1693631;83;21583;-63
2021/11/03 11:31:44;;;;;;;17.62;10.45;;;;;;;14.64;66.06;100140.02;1673643;82;21442;-62
2021/11/03 11:34:39;;;;;;;20.95;10.70;;;;;;;14.78;65.94;100133.31;1697468;82;21639;-61
2021/11/03 11:37:42;;;;;;;16.42;10.38;;;;;;;14.96;65.68;100135.91;1681466;83;21046;-62